AFR38FY EDDL-LFPG
Flight info
| Callsign | AFR38FY |
|---|---|
| Flight time | 0h 57m |
| Altitude | 24000 |
| Route | MODRU7Z MODRU Z717 MAS UM617 SISGA UZ319 DELOM DCT MOPIL |
| Aircraft | E190/M-SDE3GILORVW/S |
Departure
| Time | 2026-05-07 12:34 |
|---|---|
| Airport | Düsseldorf Airport (EDDL) |
Arrival
| Time | 2026-05-07 13:32 |
|---|---|
| Airport | Charles de Gaulle International Airport (LFPG) |
| Time | Latitude | Longitude | Altitude | Speed | Heading |
|---|---|---|---|---|---|
| 2026-05-07 11:56 | 51.27564 | 6.75983 | 117 ft | 0 kts | 63° |
| 2026-05-07 12:15 | 51.27564 | 6.75982 | 117 ft | 0 kts | 63° |
| 2026-05-07 12:30 | 51.27567 | 6.75992 | 117 ft | 4 kts | 63° |
| 2026-05-07 12:30 | 51.27595 | 6.76046 | 116 ft | 8 kts | 22° |
| 2026-05-07 12:30 | 51.27657 | 6.76039 | 115 ft | 10 kts | 1° |
| 2026-05-07 12:30 | 51.27735 | 6.76042 | 116 ft | 12 kts | 1° |
| 2026-05-07 12:31 | 51.27828 | 6.76045 | 114 ft | 14 kts | 1° |
| 2026-05-07 12:31 | 51.27898 | 6.76048 | 117 ft | 16 kts | 1° |
| 2026-05-07 12:31 | 51.28014 | 6.76048 | 114 ft | 17 kts | 360° |
| 2026-05-07 12:31 | 51.28120 | 6.76031 | 117 ft | 15 kts | 8° |
| 2026-05-07 12:32 | 51.28215 | 6.76066 | 115 ft | 15 kts | 338° |
| 2026-05-07 12:32 | 51.28244 | 6.76050 | 116 ft | 0 kts | 345° |
| 2026-05-07 12:33 | 51.28247 | 6.76049 | 117 ft | 2 kts | 345° |
| 2026-05-07 12:33 | 51.28292 | 6.76040 | 113 ft | 11 kts | 0° |
| 2026-05-07 12:34 | 51.28392 | 6.76112 | 115 ft | 22 kts | 44° |
| 2026-05-07 12:34 | 51.28612 | 6.76566 | 116 ft | 89 kts | 52° |
| 2026-05-07 12:34 | 51.29158 | 6.77698 | 163 ft | 152 kts | 51° |
| 2026-05-07 12:34 | 51.29813 | 6.79107 | 751 ft | 175 kts | 50° |
| 2026-05-07 12:35 | 51.30594 | 6.80790 | 1500 ft | 201 kts | 52° |
| 2026-05-07 12:35 | 51.31418 | 6.82589 | 2502 ft | 199 kts | 51° |
| 2026-05-07 12:35 | 51.32254 | 6.84352 | 3364 ft | 202 kts | 51° |
| 2026-05-07 12:35 | 51.33140 | 6.86203 | 4138 ft | 211 kts | 51° |
| 2026-05-07 12:36 | 51.34058 | 6.88165 | 4667 ft | 235 kts | 52° |
| 2026-05-07 12:36 | 51.35241 | 6.90069 | 5251 ft | 251 kts | 32° |
| 2026-05-07 12:36 | 51.36904 | 6.91026 | 5965 ft | 260 kts | 11° |
| 2026-05-07 12:36 | 51.38704 | 6.91545 | 6772 ft | 265 kts | 9° |
| 2026-05-07 12:37 | 51.40539 | 6.92049 | 7529 ft | 270 kts | 9° |
| 2026-05-07 12:37 | 51.42344 | 6.92528 | 8265 ft | 275 kts | 9° |
| 2026-05-07 12:37 | 51.44252 | 6.93013 | 9028 ft | 281 kts | 8° |
| 2026-05-07 12:37 | 51.45539 | 6.93326 | 9567 ft | 284 kts | 8° |
| 2026-05-07 12:38 | 51.47239 | 6.93589 | 10230 ft | 290 kts | 358° |
| 2026-05-07 12:38 | 51.49246 | 6.92734 | 10538 ft | 312 kts | 329° |
| 2026-05-07 12:38 | 51.50837 | 6.90274 | 10911 ft | 330 kts | 302° |
| 2026-05-07 12:39 | 51.51804 | 6.86883 | 11542 ft | 338 kts | 290° |
| 2026-05-07 12:39 | 51.52591 | 6.83313 | 12414 ft | 340 kts | 289° |
| 2026-05-07 12:39 | 51.53404 | 6.79727 | 13341 ft | 343 kts | 290° |
| 2026-05-07 12:39 | 51.54227 | 6.76167 | 14240 ft | 346 kts | 290° |
| 2026-05-07 12:40 | 51.55040 | 6.72515 | 15090 ft | 349 kts | 288° |
| 2026-05-07 12:40 | 51.55722 | 6.68750 | 15913 ft | 353 kts | 278° |
| 2026-05-07 12:40 | 51.55562 | 6.64818 | 16733 ft | 358 kts | 253° |
| 2026-05-07 12:40 | 51.54564 | 6.61257 | 17550 ft | 361 kts | 243° |
| 2026-05-07 12:41 | 51.53398 | 6.57661 | 18381 ft | 365 kts | 243° |
| 2026-05-07 12:41 | 51.52224 | 6.54019 | 19077 ft | 370 kts | 243° |
| 2026-05-07 12:41 | 51.51021 | 6.50345 | 19774 ft | 374 kts | 242° |
| 2026-05-07 12:41 | 51.49809 | 6.46706 | 20463 ft | 378 kts | 242° |
| 2026-05-07 12:42 | 51.48550 | 6.42972 | 21050 ft | 383 kts | 242° |
| 2026-05-07 12:42 | 51.47260 | 6.39202 | 21069 ft | 385 kts | 241° |
| 2026-05-07 12:42 | 51.45671 | 6.35785 | 21152 ft | 384 kts | 220° |
| 2026-05-07 12:42 | 51.43406 | 6.33587 | 22011 ft | 382 kts | 205° |
| 2026-05-07 12:43 | 51.40900 | 6.31957 | 22687 ft | 385 kts | 201° |
| 2026-05-07 12:43 | 51.38387 | 6.30424 | 23277 ft | 388 kts | 201° |
| 2026-05-07 12:43 | 51.35844 | 6.28894 | 23782 ft | 392 kts | 201° |
| 2026-05-07 12:43 | 51.33269 | 6.27371 | 24165 ft | 400 kts | 201° |
| 2026-05-07 12:44 | 51.30642 | 6.25834 | 24141 ft | 403 kts | 201° |
| 2026-05-07 12:44 | 51.27996 | 6.24285 | 24143 ft | 406 kts | 201° |
| 2026-05-07 12:44 | 51.25343 | 6.22733 | 24141 ft | 407 kts | 201° |
| 2026-05-07 12:44 | 51.22682 | 6.21177 | 24083 ft | 407 kts | 201° |
| 2026-05-07 12:45 | 51.20023 | 6.19623 | 24043 ft | 407 kts | 201° |
| 2026-05-07 12:45 | 51.17396 | 6.18090 | 24046 ft | 407 kts | 201° |
| 2026-05-07 12:45 | 51.14729 | 6.16534 | 24044 ft | 408 kts | 201° |
| 2026-05-07 12:45 | 51.12066 | 6.14984 | 24049 ft | 408 kts | 201° |
| 2026-05-07 12:46 | 51.09400 | 6.13434 | 24047 ft | 408 kts | 201° |
| 2026-05-07 12:46 | 51.06771 | 6.11907 | 24045 ft | 408 kts | 201° |
| 2026-05-07 12:46 | 51.04103 | 6.10359 | 24045 ft | 408 kts | 201° |
| 2026-05-07 12:46 | 51.01536 | 6.08595 | 24056 ft | 401 kts | 211° |
| 2026-05-07 12:47 | 50.99474 | 6.05760 | 24060 ft | 391 kts | 232° |
| 2026-05-07 12:47 | 50.98171 | 6.02016 | 24057 ft | 389 kts | 251° |
| 2026-05-07 12:47 | 50.97472 | 5.97881 | 24072 ft | 388 kts | 256° |
| 2026-05-07 12:47 | 50.96834 | 5.93723 | 24050 ft | 387 kts | 255° |
| 2026-05-07 12:48 | 50.96107 | 5.89609 | 24048 ft | 387 kts | 253° |
| 2026-05-07 12:48 | 50.95368 | 5.85505 | 24054 ft | 387 kts | 254° |
| 2026-05-07 12:48 | 50.94631 | 5.81401 | 24053 ft | 387 kts | 254° |
| 2026-05-07 12:48 | 50.93902 | 5.77331 | 24048 ft | 387 kts | 254° |
| 2026-05-07 12:49 | 50.93169 | 5.73231 | 24042 ft | 387 kts | 254° |
| 2026-05-07 12:49 | 50.92434 | 5.69127 | 24046 ft | 387 kts | 254° |
| 2026-05-07 12:49 | 50.91697 | 5.65027 | 24042 ft | 387 kts | 254° |
| 2026-05-07 12:49 | 50.90972 | 5.61001 | 24039 ft | 387 kts | 254° |
| 2026-05-07 12:50 | 50.90234 | 5.56907 | 24050 ft | 386 kts | 254° |
| 2026-05-07 12:50 | 50.89496 | 5.52816 | 24049 ft | 386 kts | 254° |
| 2026-05-07 12:50 | 50.88755 | 5.48724 | 24051 ft | 387 kts | 254° |
| 2026-05-07 12:50 | 50.88028 | 5.44717 | 24055 ft | 386 kts | 254° |
| 2026-05-07 12:51 | 50.87285 | 5.40627 | 24046 ft | 387 kts | 253° |
| 2026-05-07 12:51 | 50.86541 | 5.36542 | 24067 ft | 386 kts | 253° |
| 2026-05-07 12:51 | 50.85794 | 5.32458 | 24065 ft | 386 kts | 253° |
| 2026-05-07 12:51 | 50.85053 | 5.28407 | 24077 ft | 386 kts | 253° |
| 2026-05-07 12:52 | 50.84305 | 5.24324 | 24067 ft | 386 kts | 253° |
| 2026-05-07 12:52 | 50.83555 | 5.20247 | 24074 ft | 386 kts | 253° |
| 2026-05-07 12:52 | 50.82805 | 5.16174 | 24070 ft | 386 kts | 253° |
| 2026-05-07 12:52 | 50.82089 | 5.12295 | 24066 ft | 386 kts | 253° |
| 2026-05-07 12:53 | 50.81336 | 5.08218 | 24068 ft | 386 kts | 253° |
| 2026-05-07 12:53 | 50.80581 | 5.04150 | 24065 ft | 386 kts | 253° |
| 2026-05-07 12:53 | 50.79823 | 5.00076 | 24070 ft | 386 kts | 253° |
| 2026-05-07 12:53 | 50.79078 | 4.96068 | 24070 ft | 386 kts | 253° |
| 2026-05-07 12:54 | 50.78320 | 4.92003 | 24068 ft | 386 kts | 253° |
| 2026-05-07 12:54 | 50.77559 | 4.87933 | 24066 ft | 386 kts | 253° |
| 2026-05-07 12:54 | 50.76798 | 4.83868 | 24074 ft | 386 kts | 253° |
| 2026-05-07 12:54 | 50.76036 | 4.79809 | 24068 ft | 386 kts | 253° |
| 2026-05-07 12:55 | 50.75272 | 4.75746 | 24073 ft | 386 kts | 253° |
| 2026-05-07 12:55 | 50.74508 | 4.71692 | 24073 ft | 385 kts | 253° |
| 2026-05-07 12:55 | 50.73742 | 4.67638 | 24064 ft | 385 kts | 253° |
| 2026-05-07 12:55 | 50.72975 | 4.63588 | 24072 ft | 385 kts | 253° |
| 2026-05-07 12:56 | 50.72217 | 4.59591 | 24071 ft | 385 kts | 253° |
| 2026-05-07 12:56 | 50.71443 | 4.55543 | 24075 ft | 385 kts | 253° |
| 2026-05-07 12:56 | 50.70666 | 4.51499 | 24075 ft | 385 kts | 253° |
| 2026-05-07 12:56 | 50.69888 | 4.47456 | 24069 ft | 385 kts | 253° |
| 2026-05-07 12:57 | 50.69109 | 4.43413 | 24069 ft | 385 kts | 253° |
| 2026-05-07 12:57 | 50.68328 | 4.39370 | 24070 ft | 385 kts | 253° |
| 2026-05-07 12:57 | 50.67547 | 4.35333 | 24066 ft | 385 kts | 253° |
| 2026-05-07 12:57 | 50.66765 | 4.31298 | 24069 ft | 385 kts | 253° |
| 2026-05-07 12:58 | 50.65981 | 4.27263 | 24072 ft | 385 kts | 253° |
| 2026-05-07 12:58 | 50.65196 | 4.23234 | 24075 ft | 385 kts | 253° |
| 2026-05-07 12:58 | 50.64410 | 4.19204 | 24067 ft | 385 kts | 252° |
| 2026-05-07 12:58 | 50.63617 | 4.15178 | 24067 ft | 384 kts | 251° |
| 2026-05-07 12:59 | 50.62406 | 4.11429 | 24073 ft | 385 kts | 233° |
| 2026-05-07 12:59 | 50.60453 | 4.08510 | 24073 ft | 386 kts | 214° |
| 2026-05-07 12:59 | 50.57998 | 4.06799 | 24082 ft | 389 kts | 195° |
| 2026-05-07 12:59 | 50.55264 | 4.06458 | 24097 ft | 391 kts | 179° |
| 2026-05-07 13:00 | 50.52583 | 4.06711 | 24105 ft | 392 kts | 177° |
| 2026-05-07 13:00 | 50.49857 | 4.07013 | 24063 ft | 392 kts | 177° |
| 2026-05-07 13:00 | 50.47141 | 4.07297 | 24066 ft | 391 kts | 178° |
| 2026-05-07 13:00 | 50.44420 | 4.07576 | 24072 ft | 392 kts | 178° |
| 2026-05-07 13:01 | 50.41701 | 4.07855 | 24068 ft | 392 kts | 178° |
| 2026-05-07 13:01 | 50.38979 | 4.08132 | 24063 ft | 392 kts | 178° |
| 2026-05-07 13:01 | 50.36258 | 4.08409 | 24072 ft | 392 kts | 178° |
| 2026-05-07 13:01 | 50.33537 | 4.08686 | 24067 ft | 392 kts | 178° |
| 2026-05-07 13:02 | 50.30815 | 4.08950 | 24068 ft | 392 kts | 178° |
| 2026-05-07 13:02 | 50.28093 | 4.09256 | 24060 ft | 392 kts | 177° |
| 2026-05-07 13:02 | 50.25369 | 4.09577 | 24063 ft | 392 kts | 177° |
| 2026-05-07 13:02 | 50.23517 | 4.09735 | 24079 ft | 400 kts | 179° |
| 2026-05-07 13:03 | 50.19804 | 4.09970 | 24072 ft | 406 kts | 178° |
| 2026-05-07 13:03 | 50.17009 | 4.10675 | 24086 ft | 410 kts | 166° |
| 2026-05-07 13:03 | 50.14211 | 4.11499 | 24085 ft | 410 kts | 179° |
| 2026-05-07 13:03 | 50.11372 | 4.11236 | 24079 ft | 409 kts | 187° |
| 2026-05-07 13:04 | 50.08536 | 4.10794 | 24065 ft | 409 kts | 186° |
| 2026-05-07 13:04 | 50.05694 | 4.10456 | 24063 ft | 410 kts | 185° |
| 2026-05-07 13:04 | 50.02847 | 4.10154 | 24061 ft | 410 kts | 185° |
| 2026-05-07 13:04 | 50.00001 | 4.09877 | 24064 ft | 410 kts | 185° |
| 2026-05-07 13:05 | 49.97146 | 4.09619 | 24060 ft | 411 kts | 184° |
| 2026-05-07 13:05 | 49.94294 | 4.09374 | 24064 ft | 411 kts | 184° |
| 2026-05-07 13:05 | 49.91436 | 4.09139 | 24067 ft | 411 kts | 184° |
| 2026-05-07 13:05 | 49.88580 | 4.08910 | 24061 ft | 411 kts | 184° |
| 2026-05-07 13:06 | 49.85733 | 4.08687 | 23868 ft | 409 kts | 184° |
| 2026-05-07 13:06 | 49.83855 | 4.08540 | 23666 ft | 406 kts | 184° |
| 2026-05-07 13:06 | 49.81042 | 4.08318 | 23250 ft | 404 kts | 184° |
| 2026-05-07 13:06 | 49.78241 | 4.08101 | 22672 ft | 401 kts | 184° |
| 2026-05-07 13:07 | 49.75472 | 4.07888 | 22120 ft | 396 kts | 184° |
| 2026-05-07 13:07 | 49.72736 | 4.07680 | 21594 ft | 392 kts | 184° |
| 2026-05-07 13:07 | 49.70025 | 4.07478 | 21084 ft | 389 kts | 184° |
| 2026-05-07 13:07 | 49.67333 | 4.07279 | 20558 ft | 386 kts | 184° |
| 2026-05-07 13:08 | 49.64666 | 4.07085 | 20049 ft | 382 kts | 184° |
| 2026-05-07 13:08 | 49.61995 | 4.06732 | 19519 ft | 378 kts | 193° |
| 2026-05-07 13:08 | 49.59660 | 4.05138 | 19044 ft | 371 kts | 217° |
| 2026-05-07 13:08 | 49.57872 | 4.02323 | 18571 ft | 368 kts | 235° |
| 2026-05-07 13:09 | 49.56499 | 3.99017 | 18045 ft | 365 kts | 238° |
| 2026-05-07 13:09 | 49.55115 | 3.95767 | 17582 ft | 361 kts | 237° |
| 2026-05-07 13:09 | 49.53738 | 3.92537 | 17107 ft | 360 kts | 237° |
| 2026-05-07 13:09 | 49.52371 | 3.89323 | 16632 ft | 358 kts | 237° |
| 2026-05-07 13:10 | 49.50995 | 3.86084 | 16138 ft | 356 kts | 237° |
| 2026-05-07 13:10 | 49.49647 | 3.82906 | 15683 ft | 354 kts | 237° |
| 2026-05-07 13:10 | 49.48305 | 3.79744 | 15205 ft | 352 kts | 237° |
| 2026-05-07 13:10 | 49.47189 | 3.76435 | 14741 ft | 346 kts | 251° |
| 2026-05-07 13:11 | 49.46582 | 3.72914 | 14294 ft | 336 kts | 257° |
| 2026-05-07 13:11 | 49.46033 | 3.69478 | 13835 ft | 327 kts | 256° |
| 2026-05-07 13:11 | 49.45483 | 3.66136 | 13394 ft | 318 kts | 256° |
| 2026-05-07 13:11 | 49.44951 | 3.62919 | 13199 ft | 303 kts | 255° |
| 2026-05-07 13:12 | 49.44437 | 3.59841 | 13048 ft | 291 kts | 255° |
| 2026-05-07 13:12 | 49.43932 | 3.56853 | 13048 ft | 289 kts | 255° |
| 2026-05-07 13:12 | 49.43426 | 3.53856 | 13060 ft | 291 kts | 255° |
| 2026-05-07 13:12 | 49.42915 | 3.50835 | 13076 ft | 293 kts | 255° |
| 2026-05-07 13:13 | 49.42573 | 3.48824 | 13067 ft | 294 kts | 255° |
| 2026-05-07 13:14 | 49.39478 | 3.35740 | 13146 ft | 297 kts | 247° |
| 2026-05-07 13:14 | 49.38679 | 3.32819 | 13089 ft | 296 kts | 247° |
| 2026-05-07 13:14 | 49.37887 | 3.29903 | 12875 ft | 300 kts | 248° |
| 2026-05-07 13:14 | 49.37084 | 3.26948 | 12656 ft | 294 kts | 248° |
| 2026-05-07 13:15 | 49.36308 | 3.24075 | 12634 ft | 291 kts | 248° |
| 2026-05-07 13:15 | 49.35532 | 3.21204 | 12610 ft | 292 kts | 248° |
| 2026-05-07 13:15 | 49.34755 | 3.18327 | 12585 ft | 292 kts | 248° |
| 2026-05-07 13:15 | 49.33974 | 3.15436 | 12531 ft | 294 kts | 248° |
| 2026-05-07 13:16 | 49.33194 | 3.12550 | 12489 ft | 293 kts | 248° |
| 2026-05-07 13:16 | 49.32413 | 3.09664 | 12422 ft | 293 kts | 248° |
| 2026-05-07 13:16 | 49.31633 | 3.06784 | 12384 ft | 293 kts | 248° |
| 2026-05-07 13:16 | 49.30852 | 3.03903 | 12334 ft | 293 kts | 248° |
| 2026-05-07 13:17 | 49.30059 | 3.00991 | 12274 ft | 292 kts | 248° |
| 2026-05-07 13:17 | 49.29281 | 2.98117 | 12229 ft | 292 kts | 248° |
| 2026-05-07 13:17 | 49.28511 | 2.95288 | 12180 ft | 292 kts | 248° |
| 2026-05-07 13:17 | 49.27727 | 2.92405 | 12130 ft | 292 kts | 248° |
| 2026-05-07 13:18 | 49.26948 | 2.89552 | 12077 ft | 291 kts | 247° |
| 2026-05-07 13:18 | 49.26156 | 2.86643 | 12018 ft | 291 kts | 248° |
| 2026-05-07 13:18 | 49.25378 | 2.83797 | 11966 ft | 291 kts | 247° |
| 2026-05-07 13:18 | 49.24628 | 2.81057 | 11919 ft | 291 kts | 247° |
| 2026-05-07 13:19 | 49.24275 | 2.79767 | 11893 ft | 291 kts | 247° |
| 2026-05-07 13:19 | 49.23480 | 2.76874 | 11846 ft | 291 kts | 247° |
| 2026-05-07 13:19 | 49.22697 | 2.74021 | 11796 ft | 291 kts | 247° |
| 2026-05-07 13:19 | 49.21915 | 2.71171 | 11745 ft | 291 kts | 247° |
| 2026-05-07 13:20 | 49.21131 | 2.68324 | 11688 ft | 290 kts | 247° |
| 2026-05-07 13:20 | 49.20348 | 2.65481 | 11638 ft | 290 kts | 247° |
| 2026-05-07 13:20 | 49.19563 | 2.62638 | 11589 ft | 290 kts | 247° |
| 2026-05-07 13:20 | 49.18777 | 2.59796 | 11486 ft | 291 kts | 247° |
| 2026-05-07 13:21 | 49.18111 | 2.56849 | 11183 ft | 287 kts | 261° |
| 2026-05-07 13:21 | 49.17972 | 2.53863 | 10959 ft | 277 kts | 268° |
| 2026-05-07 13:21 | 49.17938 | 2.50948 | 10589 ft | 273 kts | 268° |
| 2026-05-07 13:21 | 49.17896 | 2.48050 | 10199 ft | 272 kts | 268° |
| 2026-05-07 13:22 | 49.17842 | 2.45177 | 9837 ft | 269 kts | 268° |
| 2026-05-07 13:22 | 49.17782 | 2.42336 | 9475 ft | 266 kts | 268° |
| 2026-05-07 13:22 | 49.17720 | 2.39536 | 9142 ft | 262 kts | 267° |
| 2026-05-07 13:22 | 49.17308 | 2.36875 | 8819 ft | 256 kts | 242° |
| 2026-05-07 13:23 | 49.16218 | 2.34770 | 8527 ft | 252 kts | 225° |
| 2026-05-07 13:23 | 49.14965 | 2.32908 | 8157 ft | 252 kts | 224° |
| 2026-05-07 13:23 | 49.13705 | 2.31054 | 7800 ft | 251 kts | 224° |
| 2026-05-07 13:23 | 49.12465 | 2.29200 | 7470 ft | 249 kts | 225° |
| 2026-05-07 13:24 | 49.11233 | 2.27347 | 7140 ft | 248 kts | 225° |
| 2026-05-07 13:24 | 49.10012 | 2.25500 | 6810 ft | 246 kts | 225° |
| 2026-05-07 13:24 | 49.08817 | 2.23687 | 6501 ft | 237 kts | 225° |
| 2026-05-07 13:24 | 49.07671 | 2.21948 | 6122 ft | 229 kts | 225° |
| 2026-05-07 13:25 | 49.06563 | 2.20271 | 5784 ft | 220 kts | 225° |
| 2026-05-07 13:25 | 49.05497 | 2.18669 | 5493 ft | 210 kts | 222° |
| 2026-05-07 13:25 | 49.04216 | 2.17812 | 5156 ft | 199 kts | 186° |
| 2026-05-07 13:25 | 49.02902 | 2.18014 | 4965 ft | 183 kts | 165° |
| 2026-05-07 13:26 | 49.01786 | 2.18803 | 4722 ft | 174 kts | 143° |
| 2026-05-07 13:26 | 49.01032 | 2.20165 | 4496 ft | 165 kts | 115° |
| 2026-05-07 13:26 | 49.00764 | 2.21816 | 4299 ft | 159 kts | 90° |
| 2026-05-07 13:26 | 49.00831 | 2.23486 | 4097 ft | 158 kts | 84° |
| 2026-05-07 13:27 | 49.00944 | 2.25147 | 3924 ft | 157 kts | 83° |
| 2026-05-07 13:27 | 49.01065 | 2.26774 | 3861 ft | 154 kts | 83° |
| 2026-05-07 13:27 | 49.01199 | 2.28402 | 3821 ft | 157 kts | 82° |
| 2026-05-07 13:27 | 49.01339 | 2.30106 | 3519 ft | 165 kts | 83° |
| 2026-05-07 13:28 | 49.01445 | 2.31843 | 3170 ft | 165 kts | 85° |
| 2026-05-07 13:28 | 49.01524 | 2.33600 | 2852 ft | 164 kts | 85° |
| 2026-05-07 13:28 | 49.01600 | 2.35288 | 2531 ft | 159 kts | 86° |
| 2026-05-07 13:28 | 49.01654 | 2.36954 | 2189 ft | 154 kts | 87° |
| 2026-05-07 13:29 | 49.01712 | 2.38522 | 1971 ft | 143 kts | 85° |
| 2026-05-07 13:29 | 49.01797 | 2.39990 | 1768 ft | 135 kts | 84° |
| 2026-05-07 13:29 | 49.01882 | 2.41402 | 1572 ft | 133 kts | 84° |
| 2026-05-07 13:29 | 49.01958 | 2.42807 | 1436 ft | 134 kts | 85° |
| 2026-05-07 13:30 | 49.02024 | 2.44109 | 1329 ft | 134 kts | 85° |
| 2026-05-07 13:30 | 49.02097 | 2.45541 | 1231 ft | 135 kts | 85° |
| 2026-05-07 13:30 | 49.02174 | 2.46977 | 1089 ft | 136 kts | 84° |
| 2026-05-07 13:30 | 49.02250 | 2.48413 | 890 ft | 135 kts | 84° |
| 2026-05-07 13:31 | 49.02329 | 2.49825 | 677 ft | 133 kts | 84° |
| 2026-05-07 13:31 | 49.02382 | 2.50763 | 550 ft | 131 kts | 83° |
| 2026-05-07 13:31 | 49.02455 | 2.52130 | 431 ft | 128 kts | 84° |
| 2026-05-07 13:31 | 49.02535 | 2.53447 | 379 ft | 116 kts | 85° |
| 2026-05-07 13:32 | 49.02583 | 2.54508 | 370 ft | 84 kts | 84° |
| 2026-05-07 13:32 | 49.02602 | 2.55115 | 374 ft | 28 kts | 101° |
| 2026-05-07 13:32 | 49.02534 | 2.55399 | 369 ft | 31 kts | 116° |
| 2026-05-07 13:32 | 49.02427 | 2.55616 | 366 ft | 16 kts | 175° |
| 2026-05-07 13:33 | 49.02330 | 2.55626 | 373 ft | 11 kts | 175° |
| 2026-05-07 13:33 | 49.02247 | 2.55637 | 371 ft | 15 kts | 175° |
| 2026-05-07 13:33 | 49.02111 | 2.55654 | 362 ft | 22 kts | 176° |
| 2026-05-07 13:33 | 49.01947 | 2.55670 | 367 ft | 25 kts | 175° |
| 2026-05-07 13:34 | 49.01901 | 2.55833 | 361 ft | 19 kts | 85° |
| 2026-05-07 13:34 | 49.01925 | 2.56268 | 363 ft | 22 kts | 85° |
| 2026-05-07 13:34 | 49.01938 | 2.56512 | 361 ft | 24 kts | 86° |
| 2026-05-07 13:35 | 49.01951 | 2.56771 | 361 ft | 25 kts | 85° |
| 2026-05-07 13:35 | 49.01967 | 2.57046 | 363 ft | 27 kts | 84° |
| 2026-05-07 13:35 | 49.01982 | 2.57335 | 360 ft | 28 kts | 85° |
| 2026-05-07 13:35 | 49.01998 | 2.57637 | 360 ft | 29 kts | 86° |
| 2026-05-07 13:36 | 49.01962 | 2.57889 | 362 ft | 22 kts | 128° |
| 2026-05-07 13:36 | 49.01931 | 2.58025 | 364 ft | 12 kts | 84° |
| 2026-05-07 13:36 | 49.01887 | 2.58117 | 360 ft | 13 kts | 165° |
| 2026-05-07 13:36 | 49.01792 | 2.58134 | 364 ft | 15 kts | 175° |
| 2026-05-07 13:37 | 49.01681 | 2.58148 | 362 ft | 18 kts | 175° |
| 2026-05-07 13:37 | 49.01540 | 2.58168 | 354 ft | 23 kts | 174° |
| 2026-05-07 13:37 | 49.01367 | 2.58180 | 350 ft | 27 kts | 174° |
| 2026-05-07 13:37 | 49.01166 | 2.58212 | 339 ft | 30 kts | 175° |
| 2026-05-07 13:38 | 49.00966 | 2.58244 | 332 ft | 22 kts | 157° |
| 2026-05-07 13:38 | 49.00929 | 2.58456 | 331 ft | 23 kts | 84° |
| 2026-05-07 13:38 | 49.00943 | 2.58706 | 333 ft | 24 kts | 85° |
| 2026-05-07 13:38 | 49.00962 | 2.58970 | 332 ft | 25 kts | 75° |
| 2026-05-07 13:39 | 49.00992 | 2.59237 | 333 ft | 26 kts | 84° |
| 2026-05-07 13:39 | 49.01003 | 2.59494 | 333 ft | 18 kts | 113° |
| 2026-05-07 13:39 | 49.00889 | 2.59547 | 333 ft | 19 kts | 175° |
| 2026-05-07 13:39 | 49.00751 | 2.59563 | 333 ft | 21 kts | 175° |
| 2026-05-07 13:40 | 49.00598 | 2.59582 | 333 ft | 23 kts | 175° |
| 2026-05-07 13:40 | 49.00430 | 2.59603 | 330 ft | 25 kts | 175° |
| 2026-05-07 13:40 | 49.00322 | 2.59638 | 332 ft | 12 kts | 124° |
| 2026-05-07 13:40 | 49.00323 | 2.59770 | 333 ft | 13 kts | 85° |
| 2026-05-07 13:41 | 49.00340 | 2.59917 | 330 ft | 14 kts | 48° |
| 2026-05-07 13:41 | 49.00405 | 2.59934 | 330 ft | 5 kts | 26° |
| 2026-05-07 13:41 | 49.00415 | 2.59986 | 333 ft | 5 kts | 84° |
| 2026-05-07 13:41 | 49.00416 | 2.60000 | 333 ft | 0 kts | 85° |